createdAt,value
2023-03-24T00:01:05.233Z,98736.13
2023-03-24T00:02:09.413Z,98742.50
2023-03-24T00:03:18.480Z,98744.19
2023-03-24T00:04:23.377Z,98748.69
2023-03-24T00:05:28.636Z,98743.22
2023-03-24T00:06:34.667Z,98739.59
2023-03-24T00:07:39.982Z,98728.75
2023-03-24T00:08:48.500Z,98731.44
2023-03-24T00:09:54.479Z,98732.03
2023-03-24T00:11:06.739Z,98737.09
2023-03-24T00:12:18.840Z,98736.94
2023-03-24T00:13:23.269Z,98739.47
2023-03-24T00:14:27.272Z,98731.56
2023-03-24T00:15:32.213Z,98733.09
2023-03-24T00:16:38.578Z,98739.97
2023-03-24T00:17:42.269Z,98729.44
2023-03-24T00:18:55.800Z,98738.97
2023-03-24T00:20:00.628Z,98729.44
2023-03-24T00:21:07.262Z,98732.78
2023-03-24T00:22:23.606Z,98737.47
2023-03-24T00:23:34.555Z,98737.31
2023-03-24T00:24:41.378Z,98737.13
2023-03-24T00:25:53.142Z,98734.47
2023-03-24T00:27:02.796Z,98734.78
2023-03-24T00:28:08.247Z,98737.47
2023-03-24T00:29:15.187Z,98736.47
2023-03-24T00:30:20.113Z,98737.31
2023-03-24T00:31:27.345Z,98733.63
2023-03-24T00:32:31.510Z,98729.09
2023-03-24T00:33:36.694Z,98729.94
2023-03-24T00:34:43.480Z,98728.94
2023-03-24T00:35:54.346Z,98734.16
2023-03-24T00:36:58.469Z,98739.53
2023-03-24T00:38:25.210Z,98727.81
2023-03-24T00:39:31.064Z,98730.47
2023-03-24T00:40:34.884Z,98730.47
2023-03-24T00:41:39.653Z,98729.31
2023-03-24T00:42:51.017Z,98730.16
2023-03-24T00:44:03.715Z,98735.31
2023-03-24T00:45:10.956Z,98728.59
2023-03-24T00:46:33.201Z,98725.75
2023-03-24T00:47:38.654Z,98726.41
2023-03-24T00:48:46.737Z,98716.53
2023-03-24T00:49:54.068Z,98728.81
2023-03-24T00:51:05.804Z,98725.13
2023-03-24T00:52:34.103Z,98722.44
2023-03-24T00:53:44.471Z,98721.44
2023-03-24T00:54:55.588Z,98720.06
2023-03-24T00:56:00.118Z,98717.38
2023-03-24T00:57:10.119Z,98718.09
2023-03-24T00:58:20.362Z,98715.69
2023-03-24T00:59:29.594Z,98714.69
2023-03-24T01:00:33.653Z,98708.50
2023-03-24T01:01:41.700Z,98710.88
2023-03-24T01:02:53.984Z,98710.34
2023-03-24T01:03:58.119Z,98713.72
2023-03-24T01:05:08.418Z,98711.03
2023-03-24T01:06:15.015Z,98711.03
2023-03-24T01:07:19.579Z,98705.69
2023-03-24T01:08:25.858Z,98706.53
2023-03-24T01:09:30.137Z,98711.03
2023-03-24T01:10:50.674Z,98707.34
2023-03-24T01:11:57.619Z,98712.84
2023-03-24T01:13:04.310Z,98703.00
2023-03-24T01:14:10.994Z,98708.38
2023-03-24T01:15:20.744Z,98712.03
2023-03-24T01:16:27.932Z,98708.50
2023-03-24T01:17:35.078Z,98706.66
2023-03-24T01:18:41.016Z,98706.66
2023-03-24T01:19:45.665Z,98699.63
2023-03-24T01:20:54.540Z,98705.69
2023-03-24T01:21:59.830Z,98700.47
2023-03-24T01:23:07.613Z,98699.78
2023-03-24T01:24:13.771Z,98697.94
2023-03-24T01:25:22.645Z,98702.31
2023-03-24T01:26:27.369Z,98697.94
2023-03-24T01:27:36.318Z,98694.25
2023-03-24T01:28:41.374Z,98694.44
2023-03-24T01:29:45.049Z,98696.09
2023-03-24T01:30:49.863Z,98700.47
2023-03-24T01:31:56.091Z,98692.41
2023-03-24T01:33:04.285Z,98700.47
2023-03-24T01:34:15.466Z,98695.09
2023-03-24T01:35:22.567Z,98698.78
2023-03-24T01:36:27.081Z,98693.59
2023-03-24T01:37:31.271Z,98701.78
2023-03-24T01:38:36.098Z,98693.91
2023-03-24T01:39:39.727Z,98695.88
2023-03-24T01:40:47.557Z,98691.66
2023-03-24T01:41:51.791Z,98687.19
2023-03-24T01:42:56.521Z,98690.81
2023-03-24T01:44:02.460Z,98703.25
2023-03-24T01:45:42.730Z,98687.31
2023-03-24T01:46:46.951Z,98691.66
2023-03-24T01:47:55.526Z,98691.84
2023-03-24T01:49:07.147Z,98690.81
2023-03-24T01:50:12.184Z,98694.50
2023-03-24T01:51:39.303Z,98688.31
2023-03-24T01:52:44.013Z,98687.47
2023-03-24T01:54:03.673Z,98692.97
2023-03-24T01:55:19.516Z,98682.25
2023-03-24T01:56:26.388Z,98693.81
2023-03-24T01:57:40.626Z,98685.09
2023-03-24T01:58:53.763Z,98684.09
2023-03-24T02:00:07.673Z,98682.41
2023-03-24T02:01:17.904Z,98685.09
2023-03-24T02:02:25.222Z,98684.94
2023-03-24T02:03:34.154Z,98686.09
2023-03-24T02:04:44.525Z,98684.09
2023-03-24T02:05:56.194Z,98686.78
2023-03-24T02:07:10.747Z,98688.59
2023-03-24T02:08:37.648Z,98682.41
2023-03-24T02:09:41.650Z,98690.63
2023-03-24T02:10:51.222Z,98692.47
2023-03-24T02:11:55.902Z,98688.09
2023-03-24T02:12:59.667Z,98693.47
2023-03-24T02:14:05.607Z,98684.59
2023-03-24T02:15:12.738Z,98695.44
2023-03-24T02:16:29.553Z,98678.38
2023-03-24T02:18:10.754Z,98682.03
2023-03-24T02:20:10.055Z,98681.19
2023-03-24T02:21:56.803Z,98676.84
2023-03-24T02:23:17.813Z,98673.16
2023-03-24T02:24:43.115Z,98677.69
2023-03-24T02:26:09.662Z,98677.69
2023-03-24T02:27:47.224Z,98670.81
2023-03-24T02:29:45.458Z,98670.81
2023-03-24T02:31:29.350Z,98671.97
2023-03-24T02:33:33.993Z,98665.91
2023-03-24T02:35:07.339Z,98667.59
2023-03-24T02:36:54.767Z,98670.25
2023-03-24T02:38:35.925Z,98666.91
2023-03-24T02:40:00.092Z,98669.59
2023-03-24T02:41:41.682Z,98667.41
2023-03-24T02:43:24.994Z,98672.75
2023-03-24T02:44:43.112Z,98666.53
2023-03-24T02:46:43.062Z,98661.34
2023-03-24T02:48:44.566Z,98664.03
2023-03-24T02:50:21.620Z,98660.50
2023-03-24T02:51:50.626Z,98664.19
2023-03-24T02:53:32.440Z,98658.81
2023-03-24T02:54:46.714Z,98659.81
2023-03-24T02:56:24.122Z,98658.81
2023-03-24T02:57:45.142Z,98654.31
2023-03-24T02:59:07.748Z,98653.47
2023-03-24T03:00:53.990Z,98655.16
2023-03-24T03:02:17.165Z,98660.50
2023-03-24T03:03:39.885Z,98653.31
2023-03-24T03:05:16.120Z,98652.31
2023-03-24T03:06:40.363Z,98649.63
2023-03-24T03:07:49.315Z,98652.31
2023-03-24T03:09:01.081Z,98654.16
2023-03-24T03:10:29.316Z,98641.47
2023-03-24T03:11:33.746Z,98648.78
2023-03-24T03:12:44.293Z,98639.75
2023-03-24T03:14:01.009Z,98637.06
2023-03-24T03:15:27.457Z,98639.06
2023-03-24T03:16:46.835Z,98639.06
2023-03-24T03:18:23.226Z,98639.25
2023-03-24T03:19:46.796Z,98632.03
2023-03-24T03:20:59.333Z,98625.19
2023-03-24T03:22:14.964Z,98627.84
2023-03-24T03:23:31.592Z,98627.97
2023-03-24T03:24:46.835Z,98628.97
2023-03-24T03:26:06.422Z,98630.00
2023-03-24T03:27:32.875Z,98634.66
2023-03-24T03:28:52.219Z,98631.16
2023-03-24T03:30:21.156Z,98632.31
2023-03-24T03:31:36.196Z,98635.13
2023-03-24T03:32:54.406Z,98635.28
2023-03-24T03:34:21.137Z,98637.13
2023-03-24T03:35:34.262Z,98637.97
2023-03-24T03:37:16.092Z,98644.16
2023-03-24T03:39:02.896Z,98639.97
2023-03-24T03:40:14.972Z,98638.28
2023-03-24T03:41:19.960Z,98643.66
2023-03-24T03:42:26.761Z,98639.97
2023-03-24T03:43:35.814Z,98647.16
2023-03-24T03:44:42.978Z,98638.28
2023-03-24T03:45:47.557Z,98640.66
2023-03-24T03:46:52.590Z,98639.66
2023-03-24T03:47:57.051Z,98640.34
2023-03-24T03:49:06.555Z,98643.03
2023-03-24T03:50:26.688Z,98644.72
2023-03-24T03:51:32.802Z,98635.66
2023-03-24T03:52:41.979Z,98637.34
2023-03-24T03:53:54.542Z,98635.66
2023-03-24T03:55:00.476Z,98635.66
2023-03-24T03:56:04.905Z,98630.31
2023-03-24T03:57:12.848Z,98632.16
2023-03-24T03:58:17.408Z,98632.16
2023-03-24T03:59:35.697Z,98626.97
2023-03-24T04:00:44.510Z,98630.59
2023-03-24T04:01:48.953Z,98624.41
2023-03-24T04:03:41.201Z,98616.31
2023-03-24T04:05:14.193Z,98614.50
2023-03-24T04:06:44.421Z,98618.16
2023-03-24T04:08:06.781Z,98613.81
2023-03-24T04:09:52.111Z,98619.50
2023-03-24T04:11:33.131Z,98617.28
2023-03-24T04:12:57.349Z,98612.91
2023-03-24T04:14:35.654Z,98611.53
2023-03-24T04:16:16.482Z,98613.53
2023-03-24T04:17:46.353Z,98609.34
2023-03-24T04:19:16.638Z,98618.66
2023-03-24T04:20:32.701Z,98616.00
2023-03-24T04:21:54.194Z,98616.16
2023-03-24T04:23:14.623Z,98612.09
2023-03-24T04:24:44.659Z,98612.25
2023-03-24T04:26:27.818Z,98620.59
2023-03-24T04:27:57.305Z,98618.91
2023-03-24T04:29:35.151Z,98616.53
2023-03-24T04:30:56.146Z,98614.19
2023-03-24T04:32:06.101Z,98617.00
2023-03-24T04:33:42.832Z,98618.16
2023-03-24T04:35:02.780Z,98619.81
2023-03-24T04:36:22.501Z,98618.16
2023-03-24T04:37:40.174Z,98621.66
2023-03-24T04:38:53.436Z,98616.47
2023-03-24T04:40:06.235Z,98620.00
2023-03-24T04:41:10.104Z,98624.50
2023-03-24T04:42:25.835Z,98621.00
2023-03-24T04:43:36.953Z,98629.19
2023-03-24T04:44:42.058Z,98622.97
2023-03-24T04:45:50.062Z,98623.09
2023-03-24T04:46:59.348Z,98627.47
2023-03-24T04:48:08.944Z,98621.44
2023-03-24T04:49:13.176Z,98629.47
2023-03-24T04:50:38.493Z,98628.78
2023-03-24T04:51:44.876Z,98631.47
2023-03-24T04:52:48.480Z,98628.78
2023-03-24T04:53:55.553Z,98633.13
2023-03-24T04:55:00.197Z,98631.47
2023-03-24T04:56:34.903Z,98632.47
2023-03-24T04:57:39.002Z,98636.13
2023-03-24T04:58:42.625Z,98639.81
2023-03-24T04:59:46.405Z,98632.75
2023-03-24T05:00:51.659Z,98636.41
2023-03-24T05:01:55.344Z,98637.25
2023-03-24T05:02:59.359Z,98636.53
2023-03-24T05:04:07.231Z,98640.22
2023-03-24T05:05:16.261Z,98641.38
2023-03-24T05:06:21.815Z,98645.00
2023-03-24T05:07:25.476Z,98643.34
2023-03-24T05:08:29.375Z,98638.81
2023-03-24T05:09:33.534Z,98637.16
2023-03-24T05:10:38.138Z,98648.84
2023-03-24T05:11:41.892Z,98645.31
2023-03-24T05:12:45.838Z,98648.00
2023-03-24T05:13:49.600Z,98643.66
2023-03-24T05:14:53.540Z,98643.66
2023-03-24T05:15:57.431Z,98645.47
2023-03-24T05:17:01.333Z,98649.16
2023-03-24T05:18:09.967Z,98664.22
2023-03-24T05:19:22.352Z,98648.31
2023-03-24T05:20:29.527Z,98650.13
2023-03-24T05:21:36.871Z,98652.78
2023-03-24T05:22:40.586Z,98646.75
2023-03-24T05:23:44.736Z,98650.75
2023-03-24T05:24:50.026Z,98651.44
2023-03-24T05:25:53.713Z,98654.19
2023-03-24T05:26:57.609Z,98656.53
2023-03-24T05:28:01.363Z,98657.22
2023-03-24T05:29:05.040Z,98651.03
2023-03-24T05:30:12.157Z,98655.38
2023-03-24T05:31:19.671Z,98657.22
2023-03-24T05:32:29.725Z,98654.53
2023-03-24T05:33:33.574Z,98646.84
2023-03-24T05:34:38.776Z,98653.03
2023-03-24T05:35:42.653Z,98653.03
2023-03-24T05:36:46.696Z,98658.38
2023-03-24T05:37:51.151Z,98655.03
2023-03-24T05:38:55.018Z,98654.19
2023-03-24T05:39:58.841Z,98660.38
2023-03-24T05:41:03.266Z,98660.38
2023-03-24T05:42:11.396Z,98654.88
2023-03-24T05:43:15.944Z,98657.53
2023-03-24T05:44:19.868Z,98661.19
2023-03-24T05:45:27.851Z,98662.88
2023-03-24T05:46:32.282Z,98658.38
2023-03-24T05:47:37.119Z,98663.56
2023-03-24T05:48:41.259Z,98656.53
2023-03-24T05:49:45.554Z,98662.56
2023-03-24T05:50:49.642Z,98660.88
2023-03-24T05:51:53.577Z,98661.72
2023-03-24T05:52:59.856Z,98665.25
2023-03-24T05:54:06.217Z,98661.88
2023-03-24T05:55:13.497Z,98654.03
2023-03-24T05:56:20.957Z,98663.72
2023-03-24T05:57:24.836Z,98658.38
2023-03-24T05:58:28.649Z,98664.72
2023-03-24T05:59:35.897Z,98665.56
2023-03-24T06:00:40.847Z,98670.22
2023-03-24T06:01:44.539Z,98663.88
2023-03-24T06:02:48.322Z,98667.56
2023-03-24T06:03:52.175Z,98656.97
2023-03-24T06:04:57.729Z,98665.84
2023-03-24T06:06:01.429Z,98665.16
2023-03-24T06:07:09.286Z,98662.31
2023-03-24T06:08:13.724Z,98663.31
2023-03-24T06:09:20.635Z,98660.50
2023-03-24T06:10:29.735Z,98664.00
2023-03-24T06:11:34.407Z,98671.19
2023-03-24T06:12:39.475Z,98664.88
2023-03-24T06:13:43.161Z,98665.16
2023-03-24T06:14:47.376Z,98664.16
2023-03-24T06:15:50.968Z,98671.06
2023-03-24T06:17:01.162Z,98667.56
2023-03-24T06:18:05.563Z,98667.41
2023-03-24T06:19:09.164Z,98669.22
2023-03-24T06:20:16.130Z,98670.22
2023-03-24T06:21:21.339Z,98667.56
2023-03-24T06:22:25.409Z,98664.88
2023-03-24T06:23:34.062Z,98670.22
2023-03-24T06:24:39.492Z,98668.38
2023-03-24T06:25:47.743Z,98671.91
2023-03-24T06:26:51.815Z,98676.25
2023-03-24T06:27:55.618Z,98668.22
2023-03-24T06:28:59.725Z,98674.19
2023-03-24T06:30:06.883Z,98668.38
2023-03-24T06:31:21.120Z,98676.25
2023-03-24T06:32:26.733Z,98674.25
2023-03-24T06:33:34.409Z,98671.44
2023-03-24T06:34:38.955Z,98674.94
2023-03-24T06:35:43.433Z,98674.09
2023-03-24T06:36:47.538Z,98665.97
2023-03-24T06:37:52.525Z,98671.00
2023-03-24T06:38:56.501Z,98668.16
2023-03-24T06:40:00.451Z,98666.31
2023-03-24T06:41:06.094Z,98667.03
2023-03-24T06:42:15.063Z,98660.69
2023-03-24T06:43:19.061Z,98645.31
2023-03-24T06:44:23.365Z,98648.69
2023-03-24T06:45:29.497Z,98654.75
2023-03-24T06:46:38.095Z,98656.41
2023-03-24T06:47:42.076Z,98646.84
2023-03-24T06:48:47.152Z,98652.06
2023-03-24T06:49:51.096Z,98651.75
2023-03-24T06:50:56.817Z,98644.44
2023-03-24T06:52:01.977Z,98652.31
2023-03-24T06:53:06.614Z,98650.50
2023-03-24T06:54:10.417Z,98641.47
2023-03-24T06:55:16.316Z,98657.22
2023-03-24T06:56:22.827Z,98656.06
2023-03-24T06:57:27.454Z,98651.25
2023-03-24T06:58:32.873Z,98650.09
2023-03-24T06:59:37.930Z,98647.97
2023-03-24T07:00:42.619Z,98651.00
2023-03-24T07:01:48.221Z,98646.53
2023-03-24T07:02:52.804Z,98646.53
2023-03-24T07:03:57.023Z,98644.22
2023-03-24T07:05:06.938Z,98648.28
2023-03-24T07:06:11.092Z,98645.94
2023-03-24T07:08:37.483Z,98656.75
2023-03-24T07:09:42.314Z,98654.59
2023-03-24T07:10:46.270Z,98648.63
2023-03-24T07:11:50.847Z,98646.31
2023-03-24T07:12:54.636Z,98646.00
2023-03-24T07:13:58.463Z,98645.38
2023-03-24T07:15:06.909Z,98642.75
2023-03-24T07:16:10.998Z,98645.47
2023-03-24T07:17:18.023Z,98649.75
2023-03-24T07:18:22.061Z,98648.13
2023-03-24T07:19:26.110Z,98646.84
2023-03-24T07:20:29.938Z,98636.53
2023-03-24T07:21:36.782Z,98635.94
2023-03-24T07:22:43.953Z,98634.31
2023-03-24T07:23:47.791Z,98637.72
2023-03-24T07:24:54.511Z,98638.25
2023-03-24T07:25:58.573Z,98643.31
2023-03-24T07:27:02.680Z,98639.00
2023-03-24T07:28:07.011Z,98642.38
2023-03-24T07:29:11.952Z,98640.84
2023-03-24T07:30:15.844Z,98639.69
2023-03-24T07:31:19.455Z,98639.66
2023-03-24T07:32:23.750Z,98645.38
2023-03-24T07:33:27.701Z,98642.16
2023-03-24T07:34:32.374Z,98631.22
2023-03-24T07:35:36.806Z,98635.06
2023-03-24T07:36:40.617Z,98626.13
2023-03-24T07:37:48.508Z,98633.84
2023-03-24T07:38:52.970Z,98629.31
2023-03-24T07:39:56.797Z,98627.63
2023-03-24T07:41:01.569Z,98636.56
2023-03-24T07:42:06.413Z,98639.75
2023-03-24T07:43:11.015Z,98632.88
2023-03-24T07:44:14.861Z,98632.88
2023-03-24T07:45:19.680Z,98623.44
2023-03-24T07:46:23.806Z,98632.00
2023-03-24T07:47:30.869Z,98632.00
2023-03-24T07:48:34.616Z,98629.53
2023-03-24T07:49:39.258Z,98633.41
2023-03-24T07:50:43.534Z,98630.41
2023-03-24T07:51:47.609Z,98629.56
2023-03-24T07:52:52.145Z,98629.06
2023-03-24T07:53:57.030Z,98623.34
2023-03-24T07:55:01.042Z,98625.84
2023-03-24T07:56:11.118Z,98621.16
2023-03-24T07:57:15.329Z,98615.28
2023-03-24T07:58:19.216Z,98622.84
2023-03-24T07:59:24.827Z,98614.97
2023-03-24T08:00:32.948Z,98612.59
2023-03-24T08:01:38.847Z,98612.09
2023-03-24T08:02:43.614Z,98612.09
2023-03-24T08:03:49.341Z,98614.63
2023-03-24T08:04:54.517Z,98611.22
2023-03-24T08:05:59.205Z,98595.41
2023-03-24T08:07:06.179Z,98602.31
2023-03-24T08:08:10.713Z,98602.97
2023-03-24T08:09:14.944Z,98592.53
2023-03-24T08:10:23.784Z,98589.69
2023-03-24T08:11:28.436Z,98581.59
2023-03-24T08:12:32.299Z,98589.50
2023-03-24T08:13:38.322Z,98575.41
2023-03-24T08:14:42.520Z,98582.91
2023-03-24T08:15:46.710Z,98588.81
2023-03-24T08:16:51.379Z,98577.03
2023-03-24T08:17:57.039Z,98578.38
2023-03-24T08:19:00.990Z,98571.03
2023-03-24T08:20:13.757Z,98575.22
2023-03-24T08:21:27.162Z,98570.34
2023-03-24T08:22:31.524Z,98569.19
2023-03-24T08:23:37.106Z,98566.66
2023-03-24T08:24:40.844Z,98566.31
2023-03-24T08:25:44.582Z,98566.59
2023-03-24T08:26:48.856Z,98565.63
2023-03-24T08:27:55.461Z,98568.59
2023-03-24T08:28:59.401Z,98569.94
2023-03-24T08:30:07.546Z,98562.03
2023-03-24T08:31:12.174Z,98557.44
2023-03-24T08:32:16.019Z,98555.72
2023-03-24T08:33:20.287Z,98551.50
2023-03-24T08:34:25.229Z,98556.16
2023-03-24T08:35:34.564Z,98559.34
2023-03-24T08:36:41.925Z,98553.75
2023-03-24T08:37:45.906Z,98552.22
2023-03-24T08:38:51.981Z,98557.06
2023-03-24T08:39:59.122Z,98553.78
2023-03-24T08:41:06.972Z,98547.81
2023-03-24T08:42:17.563Z,98547.09
2023-03-24T08:43:23.397Z,98557.41
2023-03-24T08:44:27.647Z,98549.41
2023-03-24T08:45:32.945Z,98546.63
2023-03-24T08:46:36.698Z,98547.19
2023-03-24T08:47:43.850Z,98556.13
2023-03-24T08:48:47.657Z,98551.25
2023-03-24T08:49:57.710Z,98544.16
2023-03-24T08:51:15.021Z,98544.47
2023-03-24T08:52:19.349Z,98539.78
2023-03-24T08:53:24.559Z,98540.03
2023-03-24T08:54:28.888Z,98539.19
2023-03-24T08:55:33.332Z,98541.25
2023-03-24T08:56:37.151Z,98547.16
2023-03-24T08:57:40.873Z,98539.25
2023-03-24T08:58:48.453Z,98530.25
2023-03-24T08:59:52.334Z,98533.06
2023-03-24T09:00:56.249Z,98526.88
2023-03-24T09:02:00.118Z,98534.38
2023-03-24T09:03:03.972Z,98531.75
2023-03-24T09:04:08.473Z,98534.25
2023-03-24T09:05:15.929Z,98529.56
2023-03-24T09:06:19.917Z,98530.72
2023-03-24T09:07:24.700Z,98526.69
2023-03-24T09:08:32.443Z,98526.06
2023-03-24T09:09:42.786Z,98533.34
2023-03-24T09:10:49.204Z,98521.34
2023-03-24T09:11:53.771Z,98524.75
2023-03-24T09:12:58.159Z,98523.75
2023-03-24T09:14:11.642Z,98519.75
2023-03-24T09:15:16.096Z,98518.72
2023-03-24T09:16:20.725Z,98512.88
2023-03-24T09:17:24.749Z,98514.78
2023-03-24T09:18:29.616Z,98511.00
2023-03-24T09:19:34.510Z,98499.28
2023-03-24T09:20:38.427Z,98505.13
2023-03-24T09:21:47.837Z,98504.66
2023-03-24T09:22:52.613Z,98506.09
2023-03-24T09:23:56.661Z,98501.72
2023-03-24T09:25:02.213Z,98491.47
2023-03-24T09:26:07.880Z,98501.66
2023-03-24T09:27:11.918Z,98503.88
2023-03-24T09:28:17.520Z,98490.75
2023-03-24T09:29:21.848Z,98494.47
2023-03-24T09:30:28.722Z,98489.84
2023-03-24T09:31:35.150Z,98488.41
2023-03-24T09:32:39.333Z,98491.75
2023-03-24T09:33:43.314Z,98489.69
2023-03-24T09:34:48.201Z,98488.31
2023-03-24T09:35:59.678Z,98486.69
2023-03-24T09:37:07.768Z,98477.97
2023-03-24T09:38:12.558Z,98477.78
2023-03-24T09:39:20.044Z,98480.94
2023-03-24T09:40:44.990Z,98472.41
2023-03-24T09:41:53.351Z,98471.78
2023-03-24T09:44:01.282Z,98466.16
2023-03-24T09:45:20.536Z,98465.72
2023-03-24T09:46:37.745Z,98462.41
2023-03-24T09:47:49.996Z,98464.72
2023-03-24T09:49:00.042Z,98463.47
2023-03-24T09:50:17.765Z,98462.00
2023-03-24T09:51:37.593Z,98458.66
2023-03-24T09:52:48.259Z,98457.25
2023-03-24T09:54:20.394Z,98449.31
2023-03-24T09:55:29.284Z,98446.41
2023-03-24T09:56:42.718Z,98449.97
2023-03-24T09:57:50.978Z,98446.00
2023-03-24T09:59:08.184Z,98447.22
2023-03-24T10:00:30.536Z,98443.69
2023-03-24T10:01:40.477Z,98437.41
2023-03-24T10:02:45.049Z,98440.56
2023-03-24T10:03:52.325Z,98435.97
2023-03-24T10:04:56.574Z,98438.06
2023-03-24T10:06:26.934Z,98429.31
2023-03-24T10:07:43.882Z,98431.41
2023-03-24T10:09:17.824Z,98429.72
2023-03-24T10:10:55.461Z,98423.88
2023-03-24T10:12:18.533Z,98429.72
2023-03-24T10:13:34.631Z,98430.94
2023-03-24T10:14:47.505Z,98427.41
2023-03-24T10:16:46.609Z,98414.28
2023-03-24T10:18:18.072Z,98420.09
2023-03-24T10:19:46.243Z,98415.34
2023-03-24T10:21:03.669Z,98409.69
2023-03-24T10:22:49.208Z,98413.22
2023-03-24T10:24:27.655Z,98410.31
2023-03-24T10:25:56.378Z,98407.38
2023-03-24T10:27:37.554Z,98394.47
2023-03-24T10:29:16.914Z,98398.19
2023-03-24T10:30:29.003Z,98403.84
2023-03-24T10:31:37.675Z,98393.66
2023-03-24T10:32:44.666Z,98387.19
2023-03-24T10:33:48.594Z,98394.06
2023-03-24T10:35:01.627Z,98386.78
2023-03-24T10:36:25.428Z,98382.41
2023-03-24T10:37:35.243Z,98390.53
2023-03-24T10:38:39.670Z,98388.03
2023-03-24T10:39:45.359Z,98383.88
2023-03-24T10:40:56.436Z,98386.78
2023-03-24T10:42:07.190Z,98374.72
2023-03-24T10:43:12.807Z,98372.63
2023-03-24T10:44:19.128Z,98375.16
2023-03-24T10:45:36.892Z,98370.97
2023-03-24T10:46:52.509Z,98380.38
2023-03-24T10:48:04.423Z,98383.06
2023-03-24T10:49:12.824Z,98370.38
2023-03-24T10:50:17.195Z,98374.72
2023-03-24T10:51:35.041Z,98357.41
2023-03-24T10:52:43.907Z,98375.53
2023-03-24T10:54:11.283Z,98362.81
2023-03-24T10:55:34.825Z,98375.13
2023-03-24T10:56:57.287Z,98369.06
2023-03-24T10:58:07.572Z,98368.25
2023-03-24T10:59:34.622Z,98368.25
2023-03-24T11:00:40.448Z,98361.81
2023-03-24T11:01:53.223Z,98365.13
2023-03-24T11:03:12.032Z,98359.72
2023-03-24T11:04:24.884Z,98356.59
2023-03-24T11:05:36.617Z,98358.06
2023-03-24T11:07:06.098Z,98364.31
2023-03-24T11:08:41.161Z,98363.03
2023-03-24T11:10:09.513Z,98356.00
2023-03-24T11:11:39.649Z,98353.50
2023-03-24T11:13:05.414Z,98346.38
2023-03-24T11:14:28.318Z,98356.78
2023-03-24T11:15:37.755Z,98354.31
2023-03-24T11:16:44.759Z,98350.78
2023-03-24T11:18:17.243Z,98352.84
2023-03-24T11:19:28.057Z,98347.19
2023-03-24T11:20:47.254Z,98343.44
2023-03-24T11:22:06.804Z,98340.13
2023-03-24T11:23:36.096Z,98335.53
2023-03-24T11:24:41.944Z,98332.59
2023-03-24T11:26:03.186Z,98335.13
2023-03-24T11:27:15.601Z,98335.16
2023-03-24T11:28:29.689Z,98330.94
2023-03-24T11:29:40.549Z,98326.78
2023-03-24T11:30:51.883Z,98329.06
2023-03-24T11:32:05.685Z,98317.84
2023-03-24T11:33:35.952Z,98322.00
2023-03-24T11:34:56.577Z,98324.72
2023-03-24T11:36:30.914Z,98317.00
2023-03-24T11:37:37.884Z,98318.44
2023-03-24T11:38:41.871Z,98312.63
2023-03-24T11:40:11.482Z,98317.63
2023-03-24T11:41:22.439Z,98309.09
2023-03-24T11:42:27.949Z,98314.28
2023-03-24T11:43:33.175Z,98314.72
2023-03-24T11:44:39.561Z,98311.81
2023-03-24T11:45:53.425Z,98309.72
2023-03-24T11:47:16.443Z,98308.88
2023-03-24T11:49:05.854Z,98310.75
2023-03-24T11:50:10.407Z,98311.00
2023-03-24T11:51:33.993Z,98304.06
2023-03-24T11:52:55.477Z,98297.44
2023-03-24T11:54:05.389Z,98300.56
2023-03-24T11:55:44.796Z,98298.25
2023-03-24T11:57:04.575Z,98302.22
2023-03-24T11:58:42.726Z,98299.09
2023-03-24T11:59:58.938Z,98284.72
2023-03-24T12:01:37.303Z,98294.72
2023-03-24T12:03:22.348Z,98294.94
2023-03-24T12:05:23.216Z,98282.63
2023-03-24T12:07:01.586Z,98289.50
2023-03-24T12:09:06.754Z,98294.94
2023-03-24T12:10:56.886Z,98282.25
2023-03-24T12:12:25.267Z,98279.72
2023-03-24T12:13:44.703Z,98285.94
2023-03-24T12:15:26.644Z,98282.84
2023-03-24T12:17:18.843Z,98287.22
2023-03-24T12:18:42.982Z,98281.38
2023-03-24T12:20:41.153Z,98276.59
2023-03-24T12:22:12.301Z,98276.59
2023-03-24T12:23:55.097Z,98274.72
2023-03-24T12:25:29.637Z,98276.59
2023-03-24T12:26:36.000Z,98269.53
2023-03-24T12:27:52.577Z,98270.97
2023-03-24T12:29:10.551Z,98265.13
2023-03-24T12:31:38.047Z,98274.28
2023-03-24T12:33:13.801Z,98272.03
2023-03-24T12:34:51.687Z,98265.75
2023-03-24T12:36:46.802Z,98262.22
2023-03-24T12:38:23.029Z,98259.91
2023-03-24T12:39:37.491Z,98261.41
2023-03-24T12:41:19.039Z,98260.16
2023-03-24T12:42:31.146Z,98267.88
2023-03-24T12:43:45.858Z,98268.06
2023-03-24T12:45:17.602Z,98268.50
2023-03-24T12:46:47.894Z,98266.00
2023-03-24T12:48:23.338Z,98269.34
2023-03-24T12:49:54.818Z,98260.81
2023-03-24T12:52:00.615Z,98269.16
2023-03-24T12:54:00.000Z,98271.88
2023-03-24T12:55:19.200Z,98264.16
2023-03-24T12:56:43.420Z,98255.00
2023-03-24T12:58:41.930Z,98254.16
2023-03-24T13:00:01.629Z,98254.16
2023-03-24T13:01:32.249Z,98254.16
2023-03-24T13:02:46.091Z,98249.34
2023-03-24T13:04:21.302Z,98248.53
2023-03-24T13:05:32.882Z,98251.44
2023-03-24T13:07:07.490Z,98243.53
2023-03-24T13:08:29.678Z,98242.28
2023-03-24T13:10:08.873Z,98247.31
2023-03-24T13:11:30.071Z,98238.56
2023-03-24T13:12:54.702Z,98238.13
2023-03-24T13:14:04.890Z,98239.78
2023-03-24T13:15:26.149Z,98245.63
2023-03-24T13:16:37.713Z,98236.88
2023-03-24T13:18:28.190Z,98247.91
2023-03-24T13:19:34.792Z,98237.94
2023-03-24T13:20:50.281Z,98234.59
2023-03-24T13:21:57.933Z,98229.41
2023-03-24T13:23:43.195Z,98240.22
2023-03-24T13:24:48.620Z,98235.03
2023-03-24T13:26:23.479Z,98230.22
2023-03-24T13:27:39.248Z,98233.56
2023-03-24T13:29:10.958Z,98233.16
2023-03-24T13:30:33.414Z,98234.16
2023-03-24T13:32:00.888Z,98229.19
2023-03-24T13:33:31.908Z,98227.53
2023-03-24T13:35:06.216Z,98227.75
2023-03-24T13:36:31.736Z,98223.56
2023-03-24T13:37:49.003Z,98222.53
2023-03-24T13:39:04.218Z,98220.03
2023-03-24T13:40:22.885Z,98219.00
2023-03-24T13:41:33.207Z,98215.25
2023-03-24T13:42:47.750Z,98220.03
2023-03-24T13:44:10.812Z,98217.72
2023-03-24T13:45:35.650Z,98219.38
2023-03-24T13:46:42.455Z,98223.97
2023-03-24T13:47:59.039Z,98211.09
2023-03-24T13:49:14.388Z,98213.16
2023-03-24T13:50:19.374Z,98219.00
2023-03-24T13:51:41.276Z,98218.78
2023-03-24T13:52:50.707Z,98215.22
2023-03-24T13:54:00.602Z,98216.06
2023-03-24T13:55:15.791Z,98215.66
2023-03-24T13:57:02.121Z,98223.94
2023-03-24T13:58:28.673Z,98222.72
2023-03-24T14:00:12.308Z,98219.16
2023-03-24T14:01:35.874Z,98220.44
2023-03-24T14:02:48.942Z,98215.19
2023-03-24T14:04:19.697Z,98222.28
2023-03-24T14:05:24.003Z,98222.47
2023-03-24T14:07:33.453Z,98218.91
2023-03-24T14:09:05.080Z,98221.84
2023-03-24T14:10:20.960Z,98221.63
2023-03-24T14:11:41.604Z,98216.84
2023-03-24T14:13:00.679Z,98218.50
2023-03-24T14:14:16.043Z,98221.63
2023-03-24T14:15:34.714Z,98222.19
2023-03-24T14:17:04.732Z,98222.19
2023-03-24T14:18:35.079Z,98220.28
2023-03-24T14:33:03.207Z,98192.38
2023-03-24T14:34:21.627Z,98181.41
2023-03-24T14:35:47.052Z,98189.69
2023-03-24T14:37:03.701Z,98181.78
2023-03-24T14:38:16.713Z,98189.69
2023-03-24T14:39:42.627Z,98188.81
2023-03-24T14:40:52.248Z,98184.66
2023-03-24T14:41:57.923Z,98176.13
2023-03-24T14:43:18.207Z,98174.47
2023-03-24T14:44:47.557Z,98174.66
2023-03-24T14:46:02.989Z,98172.19
2023-03-24T14:47:07.379Z,98174.25